11R

Brenham Municipal Airport

Brenham, Texas, USA
METAR K11R 220255Z AUTO 11004KT 7SM -VCTSRA SCT036 SCT080 OVC100 26/26 A2996 RMK AO2 LTG DSNT W AND NW P0004 60008 T02600258
Observed Flight Rules
Sep-22 @ 02:55 UTC (34 minutes ago) Visual Flight Rules
Wind Visibility Clouds Conditions
110° at 4 knots 7 miles
Temperatures Readings Precipitation
Current 26°C / 79°F
Dewpoint 26°C / 79°F
Humidity 100%
Altimeter 29.96" Hg
Pressure 1015 hPa
Elevation 94
Current Rain 0.04
METAR K11R 220255Z AUTO 11004KT 7SM -VCTSRA SCT036 SCT080 OVC100 26/26 A2996 RMK AO2 LTG DSNT W AND NW P0004 60008 T02600258
Observed Flight Rules
Sep-22 @ 02:55 UTC
(34 minutes ago)
VFR
Wind Visibility
110° at 4 knots 7 miles
Clouds
Conditions
Temperature Dewpoint
26°C / 79°F 26°C / 79°F
Humidity Altimeter Pressure
100% 29.96" Hg 1015 hPa
Current Rain
0.04